Time;durP1;ratioP1;P1;durP2;ratioP2;P2;SDS_P1;SDS_P2;PMS_P1;PMS_P2;Temp;Humidity;BMP_temperature;BMP_pressure;BME280_temperature;BME280_humidity;BME280_pressure;Samples;Min_cycle;Max_cycle;Signal;HPM_P1;HPM_P2
2022/04/22 00:00:27;;;;;;;;;;;11.60;79.40;;;;;;5021003;28;19898;-56
2022/04/22 00:02:53;;;;;;;;;;;11.70;78.80;;;;;;5021054;28;19929;-55
2022/04/22 00:05:19;;;;;;;;;;;11.80;78.90;;;;;;5020474;28;19898;-56
2022/04/22 00:07:45;;;;;;;;;;;11.70;78.80;;;;;;5020883;28;19921;-55
2022/04/22 00:10:11;;;;;;;;;;;11.70;78.50;;;;;;5020912;28;19917;-56
2022/04/22 00:12:37;;;;;;;;;;;11.80;78.30;;;;;;5020890;28;19902;-54
2022/04/22 00:15:03;;;;;;;;;;;11.80;78.60;;;;;;5020917;28;19937;-55
2022/04/22 00:17:29;;;;;;;;;;;11.90;78.80;;;;;;5020833;28;19913;-56
2022/04/22 00:19:54;;;;;;;;;;;11.80;78.20;;;;;;5020823;28;19898;-57
2022/04/22 00:22:20;;;;;;;;;;;11.80;79.00;;;;;;5020569;28;19929;-57
2022/04/22 00:24:45;;;;;;;;;;;11.60;79.70;;;;;;5020780;28;19909;-56
2022/04/22 00:27:11;;;;;;;;;;;11.80;78.70;;;;;;5020107;28;19898;-55
2022/04/22 00:29:37;;;;;;;;;;;11.80;78.10;;;;;;5020693;28;19902;-55
2022/04/22 00:32:02;;;;;;;;;;;11.90;79.00;;;;;;5020627;28;19906;-55
2022/04/22 00:34:28;;;;;;;;;;;11.80;78.00;;;;;;5020426;28;19965;-55
2022/04/22 00:36:54;;;;;;;;;;;11.80;78.70;;;;;;5020005;28;19921;-54
2022/04/22 00:39:19;;;;;;;;;;;11.80;78.60;;;;;;5020531;28;19898;-55
2022/04/22 00:41:45;;;;;;;;;;;11.80;78.40;;;;;;5020436;28;19898;-56
2022/04/22 00:44:11;;;;;;;;;;;11.70;78.40;;;;;;5020327;28;19928;-56
2022/04/22 00:46:36;;;;;;;;;;;11.70;78.50;;;;;;5020476;28;19902;-56
2022/04/22 00:49:02;;;;;;;;;;;11.70;78.90;;;;;;5020312;28;19909;-56
2022/04/22 00:51:27;;;;;;;;;;;11.70;79.50;;;;;;5020277;28;19937;-56
2022/04/22 00:53:54;;;;;;;;;;;11.70;79.40;;;;;;5020053;28;19921;-56
2022/04/22 00:56:19;;;;;;;;;;;11.80;79.40;;;;;;5020187;28;19930;-56
2022/04/22 00:58:46;;;;;;;;;;;11.80;78.60;;;;;;5020205;28;19898;-56
2022/04/22 01:01:12;;;;;;;;;;;11.80;78.40;;;;;;5023771;28;19918;-59
2022/04/22 01:03:38;;;;;;;;;;;11.60;78.50;;;;;;5039713;28;19962;-56
2022/04/22 01:11:35;;;;;;;;;;;11.50;79.50;;;;;;5039528;28;19924;-55
2022/04/22 01:14:01;;;;;;;;;;;11.60;79.10;;;;;;5039684;28;19906;-55
2022/04/22 01:16:27;;;;;;;;;;;11.70;78.90;;;;;;5039571;28;19982;-55
2022/04/22 01:18:52;;;;;;;;;;;11.70;78.40;;;;;;5039579;28;19905;-55
2022/04/22 01:21:18;;;;;;;;;;;11.70;78.60;;;;;;5039309;28;19921;-56
2022/04/22 01:23:44;;;;;;;;;;;11.60;78.80;;;;;;5039532;28;19906;-55
2022/04/22 01:26:10;;;;;;;;;;;11.60;79.20;;;;;;5039067;28;19901;-56
2022/04/22 01:28:36;;;;;;;;;;;11.60;79.00;;;;;;5039405;28;19898;-56
2022/04/22 01:31:02;;;;;;;;;;;11.60;79.10;;;;;;5039305;28;19929;-56
2022/04/22 01:33:28;;;;;;;;;;;11.50;79.30;;;;;;5039367;28;20005;-56
2022/04/22 01:35:53;;;;;;;;;;;11.60;79.50;;;;;;5039473;28;19909;-56
2022/04/22 01:38:19;;;;;;;;;;;11.60;78.40;;;;;;5039264;28;19937;-56
2022/04/22 01:40:44;;;;;;;;;;;11.70;78.10;;;;;;5039411;28;19909;-55
2022/04/22 01:43:10;;;;;;;;;;;11.70;77.80;;;;;;5039338;28;19898;-55
2022/04/22 01:45:35;;;;;;;;;;;11.80;79.10;;;;;;5039394;28;19900;-56
2022/04/22 01:48:01;;;;;;;;;;;11.80;78.40;;;;;;5039254;28;19901;-55
2022/04/22 01:50:27;;;;;;;;;;;11.70;77.90;;;;;;5039235;28;19901;-55
2022/04/22 01:52:52;;;;;;;;;;;11.70;78.00;;;;;;5039124;28;19906;-55
2022/04/22 01:55:18;;;;;;;;;;;11.70;78.00;;;;;;5039253;28;19952;-55
2022/04/22 01:57:44;;;;;;;;;;;11.70;78.00;;;;;;5038612;28;19965;-56
2022/04/22 02:00:10;;;;;;;;;;;11.70;77.50;;;;;;5039194;28;19922;-56
2022/04/22 02:02:36;;;;;;;;;;;11.90;77.90;;;;;;5039157;28;19960;-56
2022/04/22 02:05:02;;;;;;;;;;;11.90;77.60;;;;;;5039188;28;19899;-57
2022/04/22 02:07:27;;;;;;;;;;;11.90;77.20;;;;;;5039143;28;19929;-59
2022/04/22 02:09:53;;;;;;;;;;;11.90;76.90;;;;;;5039134;28;19917;-55
2022/04/22 02:12:18;;;;;;;;;;;11.90;76.90;;;;;;5039011;28;19917;-56
2022/04/22 02:14:44;;;;;;;;;;;11.80;76.70;;;;;;5038814;28;19961;-57
2022/04/22 02:17:10;;;;;;;;;;;11.90;76.50;;;;;;5038952;28;19909;-56
2022/04/22 02:19:35;;;;;;;;;;;11.80;76.60;;;;;;5041185;28;19897;-54
2022/04/22 02:22:01;;;;;;;;;;;11.70;77.00;;;;;;5042569;28;19935;-56
2022/04/22 02:24:27;;;;;;;;;;;11.70;78.10;;;;;;5042548;28;19906;-56
2022/04/22 02:29:37;;;;;;;;;;;11.80;77.70;;;;;;5042551;28;19909;-55
2022/04/22 02:32:03;;;;;;;;;;;11.90;77.60;;;;;;5042433;28;19910;-57
2022/04/22 02:34:28;;;;;;;;;;;11.80;77.80;;;;;;5042575;28;19929;-55
2022/04/22 02:36:54;;;;;;;;;;;11.80;77.80;;;;;;5042441;28;19898;-56
2022/04/22 02:39:19;;;;;;;;;;;11.80;77.60;;;;;;5042517;28;19980;-55
2022/04/22 02:47:13;;;;;;;;;;;11.60;77.90;;;;;;5042325;28;19940;-56
2022/04/22 02:49:43;;;;;;;;;;;11.70;78.10;;;;;;5042327;28;19902;-54
2022/04/22 02:52:09;;;;;;;;;;;11.70;77.70;;;;;;5042141;28;19902;-57
2022/04/22 02:54:34;;;;;;;;;;;11.60;77.30;;;;;;5042014;28;19915;-56
2022/04/22 02:57:00;;;;;;;;;;;11.60;77.70;;;;;;5042072;28;19901;-56
2022/04/22 02:59:26;;;;;;;;;;;11.70;77.90;;;;;;5041951;28;19909;-55
2022/04/22 03:01:52;;;;;;;;;;;11.60;77.40;;;;;;5041994;28;19901;-55
2022/04/22 03:04:18;;;;;;;;;;;11.70;77.40;;;;;;5042049;28;19967;-59
2022/04/22 03:06:44;;;;;;;;;;;11.70;77.30;;;;;;5041885;28;19961;-57
2022/04/22 03:09:09;;;;;;;;;;;11.70;77.50;;;;;;5041750;28;19898;-55
2022/04/22 03:11:35;;;;;;;;;;;11.80;76.40;;;;;;5041749;28;19918;-55
2022/04/22 03:14:03;;;;;;;;;;;11.80;76.90;;;;;;5041742;28;19905;-56
2022/04/22 03:16:29;;;;;;;;;;;11.70;77.20;;;;;;5041714;28;19980;-57
2022/04/22 03:18:54;;;;;;;;;;;11.80;77.30;;;;;;5041562;28;19921;-55
2022/04/22 03:21:20;;;;;;;;;;;11.80;77.00;;;;;;5041408;28;19905;-55
2022/04/22 03:23:45;;;;;;;;;;;11.80;76.70;;;;;;5041575;28;19898;-56
2022/04/22 03:26:11;;;;;;;;;;;11.80;76.70;;;;;;5041552;28;19897;-55
2022/04/22 03:28:38;;;;;;;;;;;11.90;76.30;;;;;;5041631;28;19920;-57
2022/04/22 03:31:04;;;;;;;;;;;11.90;76.60;;;;;;5041192;28;19897;-56
2022/04/22 03:33:29;;;;;;;;;;;12.00;76.20;;;;;;5041316;28;19936;-55
2022/04/22 03:35:55;;;;;;;;;;;11.90;76.50;;;;;;5041317;28;19921;-55
2022/04/22 03:38:21;;;;;;;;;;;12.00;76.20;;;;;;5041356;28;19904;-55
2022/04/22 03:40:47;;;;;;;;;;;12.00;75.50;;;;;;5041206;28;19898;-56
2022/04/22 03:43:13;;;;;;;;;;;12.10;76.40;;;;;;5041254;28;19916;-56
2022/04/22 03:45:39;;;;;;;;;;;12.00;77.00;;;;;;5041133;28;19981;-55
2022/04/22 03:48:05;;;;;;;;;;;12.10;77.30;;;;;;5041085;28;19905;-55
2022/04/22 03:50:31;;;;;;;;;;;12.00;76.20;;;;;;5041108;28;19902;-55
2022/04/22 03:52:56;;;;;;;;;;;12.00;77.60;;;;;;5040977;28;19936;-55
2022/04/22 03:55:22;;;;;;;;;;;11.90;78.70;;;;;;5040897;28;19910;-57
2022/04/22 04:00:32;;;;;;;;;;;11.90;78.30;;;;;;5040961;28;19925;-55
2022/04/22 04:02:58;;;;;;;;;;;11.70;79.30;;;;;;5040844;28;19897;-56
2022/04/22 04:05:23;;;;;;;;;;;11.70;79.20;;;;;;5040722;28;19897;-56
2022/04/22 04:07:49;;;;;;;;;;;11.70;80.30;;;;;;5040840;28;19898;-56
2022/04/22 04:15:58;;;;;;;;;;;11.90;80.60;;;;;;5040599;28;19928;-55
2022/04/22 04:18:24;;;;;;;;;;;11.90;79.80;;;;;;5040628;28;19902;-55
2022/04/22 04:23:34;;;;;;;;;;;11.90;79.30;;;;;;5040453;28;19916;-55
2022/04/22 04:25:59;;;;;;;;;;;11.90;80.30;;;;;;5040408;28;19902;-56
2022/04/22 04:28:27;;;;;;;;;;;11.90;81.70;;;;;;5040392;28;19953;-55
2022/04/22 04:30:53;;;;;;;;;;;11.90;80.60;;;;;;5040265;28;19909;-56
2022/04/22 04:33:19;;;;;;;;;;;11.90;80.60;;;;;;5040298;28;19965;-56
2022/04/22 04:35:46;;;;;;;;;;;11.90;80.80;;;;;;5039694;28;19897;-57
2022/04/22 04:38:15;;;;;;;;;;;11.90;79.70;;;;;;5039689;28;19898;-55
2022/04/22 04:40:41;;;;;;;;;;;11.80;79.10;;;;;;5040110;28;19897;-56
2022/04/22 04:43:06;;;;;;;;;;;11.70;81.00;;;;;;5039567;28;19920;-56
2022/04/22 04:45:32;;;;;;;;;;;11.80;80.80;;;;;;5040107;28;19898;-55
2022/04/22 04:47:58;;;;;;;;;;;11.70;80.60;;;;;;5040047;28;19921;-55
2022/04/22 04:50:23;;;;;;;;;;;11.80;81.10;;;;;;5040031;28;19933;-54
2022/04/22 04:52:49;;;;;;;;;;;11.90;80.20;;;;;;5039633;28;19913;-55
2022/04/22 04:55:15;;;;;;;;;;;11.70;80.70;;;;;;5039593;28;19912;-55
2022/04/22 04:57:41;;;;;;;;;;;11.70;81.60;;;;;;5039634;28;19921;-55
2022/04/22 05:00:08;;;;;;;;;;;11.70;81.50;;;;;;5039591;28;19898;-55
2022/04/22 05:02:34;;;;;;;;;;;11.70;80.90;;;;;;5039514;28;19908;-55
2022/04/22 05:05:00;;;;;;;;;;;11.70;81.00;;;;;;5039542;28;19940;-55
2022/04/22 05:07:26;;;;;;;;;;;11.70;81.10;;;;;;5039397;28;19921;-56
2022/04/22 05:09:52;;;;;;;;;;;11.70;81.50;;;;;;5039556;28;19897;-56
2022/04/22 05:12:17;;;;;;;;;;;11.60;81.50;;;;;;5039422;28;19904;-55
2022/04/22 05:14:46;;;;;;;;;;;11.60;81.40;;;;;;5039157;28;19936;-56
2022/04/22 05:17:11;;;;;;;;;;;11.60;80.40;;;;;;5039468;28;19932;-56
2022/04/22 05:19:37;;;;;;;;;;;11.70;80.30;;;;;;5039498;28;19902;-55
2022/04/22 05:22:02;;;;;;;;;;;11.70;79.80;;;;;;5039363;28;19925;-56
2022/04/22 05:24:28;;;;;;;;;;;11.70;79.80;;;;;;5039345;28;19902;-55
2022/04/22 05:26:54;;;;;;;;;;;11.70;80.00;;;;;;5039485;28;19920;-55
2022/04/22 05:34:48;;;;;;;;;;;11.60;80.00;;;;;;5039279;28;19916;-55
2022/04/22 05:37:13;;;;;;;;;;;11.60;80.00;;;;;;5039354;28;19968;-55
2022/04/22 05:39:39;;;;;;;;;;;11.50;79.20;;;;;;5039407;28;19898;-55
2022/04/22 05:42:05;;;;;;;;;;;11.60;79.00;;;;;;5039060;28;19904;-55
2022/04/22 05:44:30;;;;;;;;;;;11.60;79.80;;;;;;5039277;28;19909;-55
2022/04/22 05:46:56;;;;;;;;;;;11.70;79.70;;;;;;5039248;28;19897;-56
2022/04/22 05:49:22;;;;;;;;;;;11.70;79.80;;;;;;5039228;28;19909;-56
2022/04/22 05:51:48;;;;;;;;;;;11.80;78.40;;;;;;5039095;28;19921;-56
2022/04/22 05:54:14;;;;;;;;;;;12.10;78.60;;;;;;5042619;28;19910;-58
2022/04/22 05:56:39;;;;;;;;;;;12.30;78.30;;;;;;5043386;28;19928;-56
2022/04/22 05:59:05;;;;;;;;;;;12.40;77.00;;;;;;5043073;28;19901;-57
2022/04/22 06:01:30;;;;;;;;;;;12.70;76.50;;;;;;5042925;28;19917;-56
2022/04/22 06:03:56;;;;;;;;;;;13.10;75.20;;;;;;5042918;28;19908;-57
2022/04/22 06:06:21;;;;;;;;;;;13.20;74.10;;;;;;5042894;28;19898;-56
2022/04/22 06:11:32;;;;;;;;;;;13.30;73.80;;;;;;5042913;28;19932;-57
2022/04/22 06:13:58;;;;;;;;;;;13.00;72.60;;;;;;5042544;28;19933;-57
2022/04/22 06:16:23;;;;;;;;;;;13.00;74.40;;;;;;5042109;28;19902;-56
2022/04/22 06:18:49;;;;;;;;;;;13.00;75.00;;;;;;5042260;28;19902;-56
2022/04/22 06:21:14;;;;;;;;;;;12.90;74.30;;;;;;5042347;28;19957;-55
2022/04/22 06:23:40;;;;;;;;;;;12.90;74.70;;;;;;5042396;28;19904;-56
2022/04/22 06:26:06;;;;;;;;;;;13.00;74.60;;;;;;5042497;28;19904;-58
2022/04/22 06:28:33;;;;;;;;;;;13.20;74.10;;;;;;5042166;28;19902;-58
2022/04/22 06:30:59;;;;;;;;;;;12.90;74.30;;;;;;5042105;28;19961;-57
2022/04/22 06:33:24;;;;;;;;;;;12.90;75.10;;;;;;5041311;28;19910;-59
2022/04/22 06:35:50;;;;;;;;;;;12.50;74.50;;;;;;5042084;28;19901;-58
2022/04/22 06:38:17;;;;;;;;;;;12.70;76.80;;;;;;5042180;28;19897;-57
2022/04/22 06:46:12;;;;;;;;;;;12.60;76.40;;;;;;5041966;28;19916;-57
2022/04/22 06:48:38;;;;;;;;;;;12.80;75.30;;;;;;5041891;28;19898;-57
2022/04/22 06:51:06;;;;;;;;;;;12.90;74.50;;;;;;5042004;28;19917;-58
2022/04/22 06:53:32;;;;;;;;;;;13.10;75.30;;;;;;5041675;28;19932;-56
2022/04/22 06:56:00;;;;;;;;;;;13.00;74.30;;;;;;5041787;28;19898;-57
2022/04/22 06:58:26;;;;;;;;;;;12.70;75.80;;;;;;5041729;28;19897;-56
2022/04/22 07:00:52;;;;;;;;;;;12.30;76.10;;;;;;5041736;28;19898;-57
2022/04/22 07:03:18;;;;;;;;;;;12.00;76.40;;;;;;5041346;28;19913;-57
2022/04/22 07:05:44;;;;;;;;;;;11.70;78.40;;;;;;5041124;28;19901;-56
2022/04/22 07:08:14;;;;;;;;;;;11.90;79.80;;;;;;5041585;28;19898;-55
2022/04/22 07:10:43;;;;;;;;;;;11.80;78.10;;;;;;5041508;28;19901;-56
2022/04/22 07:13:09;;;;;;;;;;;11.70;79.20;;;;;;5041234;28;19909;-57
2022/04/22 07:15:35;;;;;;;;;;;11.90;80.20;;;;;;5041525;28;19921;-54
2022/04/22 07:18:01;;;;;;;;;;;11.90;79.50;;;;;;5041558;28;19961;-56
2022/04/22 07:20:27;;;;;;;;;;;12.00;79.20;;;;;;5041316;28;19897;-58
2022/04/22 07:22:53;;;;;;;;;;;12.00;79.00;;;;;;5041111;28;19924;-55
2022/04/22 07:25:19;;;;;;;;;;;11.90;78.20;;;;;;5041287;28;19905;-56
2022/04/22 07:27:46;;;;;;;;;;;11.90;79.50;;;;;;5041322;28;19925;-56
2022/04/22 07:30:13;;;;;;;;;;;11.90;79.30;;;;;;5041211;28;19898;-57
2022/04/22 07:32:39;;;;;;;;;;;12.00;78.90;;;;;;5041123;28;19901;-56
2022/04/22 07:35:05;;;;;;;;;;;12.10;79.30;;;;;;5041129;28;19909;-57
2022/04/22 07:37:31;;;;;;;;;;;12.20;79.10;;;;;;5041224;28;19932;-57
2022/04/22 07:39:56;;;;;;;;;;;12.20;78.90;;;;;;5041092;28;19902;-59
2022/04/22 07:42:22;;;;;;;;;;;12.20;79.20;;;;;;5041166;28;19928;-58
2022/04/22 07:47:34;;;;;;;;;;;12.20;80.20;;;;;;5041221;28;19944;-58
2022/04/22 07:50:02;;;;;;;;;;;12.20;79.90;;;;;;5040979;28;19902;-57
2022/04/22 07:52:28;;;;;;;;;;;12.20;80.70;;;;;;5040817;28;19904;-55
2022/04/22 07:54:54;;;;;;;;;;;12.20;81.00;;;;;;5040791;28;19921;-55
2022/04/22 07:57:21;;;;;;;;;;;12.20;80.10;;;;;;5040739;28;19910;-55
2022/04/22 07:59:47;;;;;;;;;;;12.20;80.40;;;;;;5040964;28;19905;-56
2022/04/22 08:02:12;;;;;;;;;;;12.30;81.30;;;;;;5040730;28;19910;-55
2022/04/22 08:04:38;;;;;;;;;;;12.30;79.50;;;;;;5040779;28;19898;-54
2022/04/22 08:07:06;;;;;;;;;;;12.30;79.80;;;;;;5040693;28;19922;-55
2022/04/22 08:09:31;;;;;;;;;;;12.30;79.90;;;;;;5040590;28;19898;-55
2022/04/22 08:11:57;;;;;;;;;;;12.40;80.10;;;;;;5039884;28;19902;-57
2022/04/22 08:14:23;;;;;;;;;;;12.50;79.10;;;;;;5040323;28;19921;-58
2022/04/22 08:16:49;;;;;;;;;;;12.40;78.80;;;;;;5039483;28;19918;-55
2022/04/22 08:19:14;;;;;;;;;;;12.40;78.20;;;;;;5040454;28;19940;-55
2022/04/22 08:21:40;;;;;;;;;;;12.40;78.90;;;;;;5039916;28;19951;-57
2022/04/22 08:24:10;;;;;;;;;;;12.50;79.20;;;;;;5040216;28;19902;-55
2022/04/22 08:26:35;;;;;;;;;;;12.50;78.60;;;;;;5040065;28;19898;-54
2022/04/22 08:29:01;;;;;;;;;;;12.60;78.00;;;;;;5040257;28;19920;-58
2022/04/22 08:31:27;;;;;;;;;;;12.60;78.30;;;;;;5040017;28;19901;-54
2022/04/22 08:33:55;;;;;;;;;;;12.80;78.40;;;;;;5039851;28;19912;-56
2022/04/22 08:36:22;;;;;;;;;;;12.80;78.30;;;;;;5039899;28;19923;-58
2022/04/22 08:38:47;;;;;;;;;;;12.80;78.60;;;;;;5040042;28;19902;-57
2022/04/22 08:41:13;;;;;;;;;;;12.70;77.50;;;;;;5039826;28;19912;-55
2022/04/22 08:43:39;;;;;;;;;;;12.70;78.40;;;;;;5039819;28;19899;-55
2022/04/22 08:49:58;;;;;;;;;;;12.80;78.70;;;;;;5039788;28;19933;-57
2022/04/22 08:51:38;;;;;;;;;;;12.80;78.60;;;;;;5039673;28;19908;-57
2022/04/22 08:54:05;;;;;;;;;;;12.90;79.50;;;;;;5039756;28;19949;-57
2022/04/22 08:56:33;;;;;;;;;;;12.90;79.00;;;;;;5039521;28;19961;-55
2022/04/22 08:59:00;;;;;;;;;;;12.90;79.20;;;;;;5039712;28;19924;-55
2022/04/22 09:01:26;;;;;;;;;;;12.90;79.40;;;;;;5039194;28;19897;-56
2022/04/22 09:03:51;;;;;;;;;;;12.90;80.00;;;;;;5039515;28;19909;-57
2022/04/22 09:06:18;;;;;;;;;;;12.90;79.90;;;;;;5039195;28;19937;-56
2022/04/22 09:08:44;;;;;;;;;;;12.70;79.70;;;;;;5039507;28;19936;-56
2022/04/22 09:11:09;;;;;;;;;;;12.70;81.70;;;;;;5039343;28;19897;-57
2022/04/22 09:13:35;;;;;;;;;;;12.70;82.00;;;;;;5039310;28;19941;-56
2022/04/22 09:16:01;;;;;;;;;;;12.70;81.30;;;;;;5039316;28;19902;-57
2022/04/22 09:18:27;;;;;;;;;;;12.70;81.00;;;;;;5039347;28;19929;-58
2022/04/22 09:21:02;;;;;;;;;;;12.70;81.60;;;;;;5039276;28;19902;-56
2022/04/22 09:23:32;;;;;;;;;;;12.80;82.20;;;;;;5039245;28;19913;-55
2022/04/22 09:25:58;;;;;;;;;;;12.70;81.10;;;;;;5039223;28;19902;-56
2022/04/22 09:28:24;;;;;;;;;;;12.70;82.10;;;;;;5039071;28;19943;-59
2022/04/22 09:31:19;;;;;;;;;;;12.80;82.00;;;;;;5039351;28;20032;-57
2022/04/22 09:33:47;;;;;;;;;;;12.80;82.10;;;;;;5026779;28;19909;-56
2022/04/22 09:44:50;;;;;;;;;;;13.20;80.00;;;;;;5039068;28;19905;-57
2022/04/22 09:47:16;;;;;;;;;;;13.30;80.00;;;;;;5039081;28;19922;-58
2022/04/22 09:49:44;;;;;;;;;;;13.30;79.20;;;;;;5039149;28;19897;-56
2022/04/22 09:52:10;;;;;;;;;;;13.30;78.90;;;;;;5038502;28;19898;-56
2022/04/22 09:54:37;;;;;;;;;;;13.30;79.60;;;;;;5038865;28;19977;-57
2022/04/22 09:57:02;;;;;;;;;;;13.30;79.90;;;;;;5038958;28;19898;-56
2022/04/22 09:59:28;;;;;;;;;;;13.30;79.70;;;;;;5039008;28;19921;-55
2022/04/22 10:01:54;;;;;;;;;;;13.50;80.10;;;;;;5038655;28;19906;-57
2022/04/22 10:04:20;;;;;;;;;;;13.60;80.20;;;;;;5038751;28;19897;-55
2022/04/22 10:06:46;;;;;;;;;;;13.70;80.00;;;;;;5039024;28;19897;-59
2022/04/22 10:09:14;;;;;;;;;;;13.90;78.40;;;;;;5038962;28;19902;-56
2022/04/22 10:11:44;;;;;;;;;;;13.90;78.60;;;;;;5038983;28;19898;-56
2022/04/22 10:14:10;;;;;;;;;;;14.00;77.40;;;;;;5038705;28;19925;-55
2022/04/22 10:16:36;;;;;;;;;;;13.90;77.40;;;;;;5038697;28;19902;-57
2022/04/22 10:19:02;;;;;;;;;;;13.90;75.40;;;;;;5038943;28;19897;-60
2022/04/22 10:21:28;;;;;;;;;;;13.90;77.40;;;;;;5038454;28;19905;-56
2022/04/22 10:23:56;;;;;;;;;;;13.90;78.10;;;;;;5038882;28;19965;-56
2022/04/22 10:26:22;;;;;;;;;;;13.80;78.80;;;;;;5037933;28;19905;-57
2022/04/22 10:28:48;;;;;;;;;;;13.70;79.20;;;;;;5037988;28;19901;-56
2022/04/22 10:31:15;;;;;;;;;;;13.70;79.00;;;;;;5038540;28;19897;-58
2022/04/22 10:33:41;;;;;;;;;;;13.70;79.30;;;;;;5036022;28;20005;-63
2022/04/22 10:36:07;;;;;;;;;;;13.60;79.00;;;;;;5037885;28;19897;-67
2022/04/22 10:38:35;;;;;;;;;;;13.50;79.00;;;;;;5038013;28;19940;-64
2022/04/22 10:41:02;;;;;;;;;;;13.50;79.20;;;;;;5040390;28;19905;-56
2022/04/22 10:43:28;;;;;;;;;;;13.50;79.00;;;;;;5041315;28;19921;-56
2022/04/22 10:48:39;;;;;;;;;;;13.60;78.60;;;;;;5041394;28;19908;-57
2022/04/22 10:51:05;;;;;;;;;;;13.70;79.80;;;;;;5041247;28;20081;-65
2022/04/22 10:53:33;;;;;;;;;;;13.70;80.30;;;;;;5041220;28;19909;-56
2022/04/22 10:56:17;;;;;;;;;;;13.70;80.80;;;;;;5041205;28;19972;-64
2022/04/22 10:58:43;;;;;;;;;;;13.70;80.10;;;;;;5041179;28;19906;-59
2022/04/22 11:01:28;;;;;;;;;;;13.40;79.60;;;;;;5041172;28;19924;-60
2022/04/22 11:03:56;;;;;;;;;;;13.30;81.20;;;;;;5041250;28;19945;-60
2022/04/22 11:06:22;;;;;;;;;;;13.30;82.10;;;;;;5041050;28;19932;-59
2022/04/22 11:08:58;;;;;;;;;;;13.30;81.60;;;;;;5040772;28;19902;-61
2022/04/22 11:11:24;;;;;;;;;;;13.40;83.10;;;;;;5040929;28;19904;-61
2022/04/22 11:13:51;;;;;;;;;;;13.50;81.80;;;;;;5041030;28;19906;-61
2022/04/22 11:16:20;;;;;;;;;;;13.40;80.90;;;;;;5041260;28;19908;-57
2022/04/22 11:19:05;;;;;;;;;;;13.40;81.70;;;;;;5041437;28;19904;-55
2022/04/22 11:21:31;;;;;;;;;;;13.40;81.40;;;;;;5040926;28;19940;-54
2022/04/22 11:23:56;;;;;;;;;;;13.30;80.50;;;;;;5040694;28;19922;-56
2022/04/22 11:26:22;;;;;;;;;;;13.30;81.50;;;;;;5041152;28;19921;-56
2022/04/22 11:28:48;;;;;;;;;;;13.40;80.40;;;;;;5040543;28;19909;-57
2022/04/22 11:31:14;;;;;;;;;;;13.30;81.20;;;;;;5041244;28;19945;-58
2022/04/22 11:33:52;;;;;;;;;;;13.30;81.10;;;;;;5028281;28;19916;-56
2022/04/22 11:36:17;;;;;;;;;;;13.40;80.20;;;;;;5021443;28;19949;-55
2022/04/22 11:38:50;;;;;;;;;;;13.50;80.50;;;;;;5021999;28;19916;-55
2022/04/22 11:41:16;;;;;;;;;;;13.40;81.90;;;;;;5040967;28;19902;-55
2022/04/22 11:43:43;;;;;;;;;;;13.50;81.60;;;;;;5040321;28;19921;-55
2022/04/22 11:46:10;;;;;;;;;;;13.60;80.90;;;;;;5026242;28;19912;-55
2022/04/22 11:48:43;;;;;;;;;;;13.60;81.10;;;;;;5021178;28;19902;-56
2022/04/22 11:51:09;;;;;;;;;;;13.70;80.70;;;;;;5020986;28;19902;-56
2022/04/22 11:53:34;;;;;;;;;;;13.70;78.30;;;;;;5020832;28;19910;-56
2022/04/22 11:56:01;;;;;;;;;;;13.70;77.40;;;;;;5021077;28;19925;-55
2022/04/22 11:58:29;;;;;;;;;;;13.70;77.50;;;;;;5021000;28;19926;-55
2022/04/22 12:06:26;;;;;;;;;;;13.80;77.90;;;;;;5020759;28;19944;-56
2022/04/22 12:08:56;;;;;;;;;;;13.80;77.60;;;;;;5020764;28;19898;-60
2022/04/22 12:11:22;;;;;;;;;;;13.80;77.90;;;;;;5020556;28;19902;-56
2022/04/22 12:13:48;;;;;;;;;;;13.80;77.50;;;;;;5020481;28;19948;-55
2022/04/22 12:16:25;;;;;;;;;;;13.90;77.90;;;;;;5020490;28;19898;-55
2022/04/22 12:18:52;;;;;;;;;;;14.00;78.10;;;;;;5020422;28;19902;-56
2022/04/22 12:21:18;;;;;;;;;;;14.00;78.50;;;;;;5020085;28;19957;-58
2022/04/22 12:23:44;;;;;;;;;;;14.00;78.40;;;;;;5020180;28;19921;-57
2022/04/22 12:26:36;;;;;;;;;;;14.10;79.00;;;;;;5020415;28;19898;-57
2022/04/22 12:29:02;;;;;;;;;;;14.10;78.40;;;;;;5010675;28;19902;-57
2022/04/22 12:31:29;;;;;;;;;;;14.10;77.80;;;;;;5020206;28;19909;-58
2022/04/22 12:33:59;;;;;;;;;;;14.20;77.50;;;;;;5020134;28;19933;-63
2022/04/22 12:36:25;;;;;;;;;;;14.30;75.90;;;;;;5020161;28;19929;-57
2022/04/22 12:38:50;;;;;;;;;;;14.50;74.10;;;;;;5020226;28;19902;-58
2022/04/22 12:41:18;;;;;;;;;;;14.60;74.70;;;;;;5020260;28;19902;-60
2022/04/22 12:43:47;;;;;;;;;;;14.80;74.50;;;;;;5020199;28;19937;-57
2022/04/22 12:52:09;;;;;;;;;;;15.30;71.70;;;;;;5038932;28;19924;-56
2022/04/22 12:54:39;;;;;;;;;;;15.50;71.80;;;;;;5038643;28;19909;-56
2022/04/22 12:57:05;;;;;;;;;;;15.60;70.90;;;;;;5038445;28;19925;-56
2022/04/22 12:59:44;;;;;;;;;;;15.70;69.80;;;;;;5039008;28;19897;-57
2022/04/22 13:02:14;;;;;;;;;;;15.80;70.00;;;;;;5038408;28;19901;-57
2022/04/22 13:04:50;;;;;;;;;;;15.80;69.80;;;;;;5036242;28;19898;-57
2022/04/22 13:07:15;;;;;;;;;;;15.90;69.40;;;;;;5038770;28;19897;-56
2022/04/22 13:09:41;;;;;;;;;;;16.10;69.40;;;;;;5032382;28;19979;-54
2022/04/22 13:12:07;;;;;;;;;;;16.20;68.50;;;;;;5028740;28;19902;-56
2022/04/22 13:14:33;;;;;;;;;;;16.30;69.90;;;;;;5034508;28;19996;-57
2022/04/22 13:17:00;;;;;;;;;;;16.30;67.40;;;;;;5032897;28;19912;-56
2022/04/22 13:19:25;;;;;;;;;;;16.40;67.90;;;;;;5028670;28;19902;-55
2022/04/22 13:21:51;;;;;;;;;;;16.50;69.00;;;;;;5029900;28;19948;-55
2022/04/22 13:24:16;;;;;;;;;;;16.70;68.20;;;;;;5038490;28;19902;-55
2022/04/22 13:26:42;;;;;;;;;;;16.80;68.90;;;;;;5037338;28;19918;-56
2022/04/22 13:29:07;;;;;;;;;;;16.80;67.30;;;;;;5034564;28;19940;-55
2022/04/22 13:31:35;;;;;;;;;;;17.00;67.30;;;;;;5038492;28;19910;-55
2022/04/22 13:34:03;;;;;;;;;;;17.00;66.10;;;;;;5034738;28;19912;-56
2022/04/22 13:36:32;;;;;;;;;;;17.20;67.50;;;;;;5029112;28;19902;-56
2022/04/22 13:38:58;;;;;;;;;;;17.20;65.40;;;;;;5030348;28;19904;-56
2022/04/22 13:41:23;;;;;;;;;;;17.10;66.00;;;;;;5038689;28;19909;-54
2022/04/22 13:43:49;;;;;;;;;;;17.00;66.80;;;;;;5038988;28;19947;-56
2022/04/22 13:54:28;;;;;;;;;;;16.90;65.70;;;;;;5038764;28;19952;-55
2022/04/22 13:56:53;;;;;;;;;;;16.80;66.30;;;;;;5038788;28;19905;-55
2022/04/22 13:59:19;;;;;;;;;;;16.70;65.40;;;;;;5038030;28;19905;-55
2022/04/22 14:01:44;;;;;;;;;;;16.70;65.90;;;;;;5033860;28;19929;-56
2022/04/22 14:04:10;;;;;;;;;;;16.60;66.20;;;;;;5036907;28;19897;-54
2022/04/22 14:06:36;;;;;;;;;;;16.50;68.40;;;;;;5038178;28;19902;-54
2022/04/22 14:09:02;;;;;;;;;;;16.30;70.40;;;;;;5032899;28;19928;-54
2022/04/22 14:11:30;;;;;;;;;;;16.30;71.60;;;;;;5035638;28;19902;-56
2022/04/22 14:13:56;;;;;;;;;;;16.30;71.70;;;;;;5032285;28;19976;-57
2022/04/22 14:16:21;;;;;;;;;;;16.40;72.60;;;;;;5032565;28;19905;-56
2022/04/22 14:18:47;;;;;;;;;;;16.50;72.00;;;;;;5037486;28;19940;-58
2022/04/22 14:21:13;;;;;;;;;;;16.30;72.70;;;;;;5033915;28;19917;-59
2022/04/22 14:23:38;;;;;;;;;;;16.10;73.40;;;;;;5041462;28;19925;-62
2022/04/22 14:26:04;;;;;;;;;;;15.70;75.20;;;;;;5041628;28;19905;-59
2022/04/22 14:28:29;;;;;;;;;;;15.70;76.00;;;;;;5023896;28;19925;-57
2022/04/22 14:30:55;;;;;;;;;;;15.80;76.20;;;;;;5022354;28;19916;-59
2022/04/22 14:33:21;;;;;;;;;;;15.70;76.60;;;;;;5024869;28;19965;-57
2022/04/22 14:35:50;;;;;;;;;;;15.60;77.30;;;;;;5039977;28;19901;-57
2022/04/22 14:38:15;;;;;;;;;;;15.50;77.60;;;;;;5041572;28;19913;-56
2022/04/22 14:40:42;;;;;;;;;;;15.50;77.90;;;;;;5035373;28;19922;-56
2022/04/22 14:43:08;;;;;;;;;;;15.60;78.40;;;;;;5022257;28;19905;-57
2022/04/22 14:45:34;;;;;;;;;;;15.70;77.80;;;;;;5022348;28;19937;-56
2022/04/22 14:47:59;;;;;;;;;;;15.70;78.00;;;;;;5021875;28;19924;-56
2022/04/22 14:50:26;;;;;;;;;;;15.80;78.10;;;;;;5022305;28;19901;-57
2022/04/22 14:52:52;;;;;;;;;;;15.80;77.80;;;;;;5030573;28;19938;-56
2022/04/22 14:55:17;;;;;;;;;;;15.90;77.80;;;;;;5037656;28;19914;-56
2022/04/22 14:57:43;;;;;;;;;;;15.80;77.70;;;;;;5032740;28;19918;-56
2022/04/22 15:00:09;;;;;;;;;;;15.80;78.20;;;;;;5038288;28;19921;-56
2022/04/22 15:02:38;;;;;;;;;;;15.80;78.50;;;;;;5031051;28;19905;-57
2022/04/22 15:05:05;;;;;;;;;;;15.70;78.50;;;;;;5046799;28;19917;-55
2022/04/22 15:07:31;;;;;;;;;;;15.70;78.90;;;;;;5031555;28;19905;-57
2022/04/22 15:09:56;;;;;;;;;;;15.60;79.70;;;;;;5037452;28;19925;-55
2022/04/22 15:12:23;;;;;;;;;;;15.20;81.80;;;;;;5040907;28;19952;-57
2022/04/22 15:14:52;;;;;;;;;;;14.70;83.70;;;;;;5037349;28;19905;-55
2022/04/22 15:24:09;;;;;;;;;;;14.60;85.50;;;;;;5040220;28;19902;-56
2022/04/22 15:25:32;;;;;;;;;;;14.60;85.90;;;;;;5038865;28;19909;-59
2022/04/22 15:27:59;;;;;;;;;;;14.60;85.70;;;;;;5035621;28;19898;-56
2022/04/22 15:30:45;;;;;;;;;;;14.60;85.70;;;;;;5041036;28;19902;-55
2022/04/22 15:33:11;;;;;;;;;;;14.70;85.70;;;;;;5041005;28;19928;-57